Cleveland, Ohio
Traffic Map
Current Weather Conditions
Cleveland, Ohio
Overcast Haze
Overcast
36°
Feels Like: 30°
Wind Chill: 30° Ceiling: 600
Heat Index: 36° Visibility: 5mi
Dew Point: 34° Wind: 8mph
Humidity: 93% Direction: 270° (W)
Pressure: 29.73in Gusts: 0mph
Raw Report DataKBKL 241753Z 27007KT 5SM BR OVC006 02/01 A2973 RMK AO2 RAB06E43 SLP073 P0001 60002 T00220011 10022 20017 58010
Traffic Incident Summary
Active as of:
Severity:
Category:
InformationThere was an issue retrieving the traffic information for this location. Please try a different location or try again shortly.
Advertisements
Track Severe Weather on mobile